GFTO weather

Tongo Airport
Tongo, Eastern Province, Sierra Leone

Public forecast

Using degrees Celsius for public forecast. Weather courtesy of forecast.io.

Closest aviation weather report (METAR) to Tongo Airport

Report is more than 2 hours old.

Closest report is Roberts International Airport, 126.3 nm (233.8 km) SSE. Retrieved 2020/06/04 00:00 UTC (4 hours ago):

GLRB 040000Z 00000KT 9999 TS BKN012 FEW023CB 25/24 Q1015 NOSIG RMK CB/N-SW

Closest aviation forecast (TAF) to Tongo Airport

Forecast is more than 6 hours old.

Closest forecast is Roberts International Airport, 126.3 nm (233.8 km) SSE. Retrieved 2020/06/03 18:06 UTC (10 hours ago):

TAF TAF GLRB 031700Z 0318/0418 00000KT 9999 BKN013 FEW024CB TEMPO 0320/0324 06008KT 7000 TSRA BKN011 FEW023CB BECMG 0402/0404 VRB03KT 9000 TS BKB010 FEW022CB